sensor_id;sensor_type;location;lat;lon;timestamp;pressure;altitude;pressure_sealevel;temperature;humidity
41334;BME280;27078;46.428;6.256;2023-04-03T00:00:53;96714.50;;;5.14;100.00
41334;BME280;27078;46.428;6.256;2023-04-03T00:03:19;96710.22;;;5.13;100.00
41334;BME280;27078;46.428;6.256;2023-04-03T00:05:45;96709.25;;;5.14;100.00
41334;BME280;27078;46.428;6.256;2023-04-03T00:08:10;96709.25;;;5.14;100.00
41334;BME280;27078;46.428;6.256;2023-04-03T00:10:36;96716.38;;;5.12;100.00
41334;BME280;27078;46.428;6.256;2023-04-03T00:13:03;96697.94;;;5.13;100.00
41334;BME280;27078;46.428;6.256;2023-04-03T00:15:29;96710.97;;;5.15;100.00
41334;BME280;27078;46.428;6.256;2023-04-03T00:17:55;96707.22;;;5.19;100.00
41334;BME280;27078;46.428;6.256;2023-04-03T00:20:20;96702.72;;;5.21;100.00
41334;BME280;27078;46.428;6.256;2023-04-03T00:22:46;96706.25;;;5.20;100.00
41334;BME280;27078;46.428;6.256;2023-04-03T00:25:11;96710.75;;;5.18;100.00
41334;BME280;27078;46.428;6.256;2023-04-03T00:27:38;96704.59;;;5.19;100.00
41334;BME280;27078;46.428;6.256;2023-04-03T00:30:05;96703.47;;;5.23;100.00
41334;BME280;27078;46.428;6.256;2023-04-03T00:32:32;96696.59;;;5.35;100.00
41334;BME280;27078;46.428;6.256;2023-04-03T00:34:57;96697.25;;;5.38;100.00
41334;BME280;27078;46.428;6.256;2023-04-03T00:37:23;96699.13;;;5.36;100.00
41334;BME280;27078;46.428;6.256;2023-04-03T00:39:48;96696.47;;;5.50;100.00
41334;BME280;27078;46.428;6.256;2023-04-03T00:42:13;96701.13;;;5.45;100.00
41334;BME280;27078;46.428;6.256;2023-04-03T00:47:07;96691.22;;;5.50;100.00
41334;BME280;27078;46.428;6.256;2023-04-03T00:49:33;96691.41;;;5.47;100.00
41334;BME280;27078;46.428;6.256;2023-04-03T00:51:59;96689.75;;;5.46;100.00
41334;BME280;27078;46.428;6.256;2023-04-03T00:54:25;96692.16;;;5.49;100.00
41334;BME280;27078;46.428;6.256;2023-04-03T00:56:53;96689.53;;;5.49;100.00
41334;BME280;27078;46.428;6.256;2023-04-03T00:59:24;96689.53;;;5.49;100.00
41334;BME280;27078;46.428;6.256;2023-04-03T01:01:52;96693.31;;;5.58;100.00
41334;BME280;27078;46.428;6.256;2023-04-03T01:04:31;96692.41;;;5.59;100.00
41334;BME280;27078;46.428;6.256;2023-04-03T01:07:01;96691.34;;;5.62;100.00
41334;BME280;27078;46.428;6.256;2023-04-03T01:09:28;96685.16;;;5.63;100.00
41334;BME280;27078;46.428;6.256;2023-04-03T01:11:54;96680.88;;;5.62;100.00
41334;BME280;27078;46.428;6.256;2023-04-03T01:14:20;96673.00;;;5.62;100.00
41334;BME280;27078;46.428;6.256;2023-04-03T01:16:54;96669.34;;;5.64;100.00
41334;BME280;27078;46.428;6.256;2023-04-03T01:19:22;96666.31;;;5.70;100.00
41334;BME280;27078;46.428;6.256;2023-04-03T01:24:34;96660.19;;;5.84;100.00
41334;BME280;27078;46.428;6.256;2023-04-03T01:27:01;96658.41;;;5.85;100.00
41334;BME280;27078;46.428;6.256;2023-04-03T01:29:27;96659.03;;;5.88;100.00
41334;BME280;27078;46.428;6.256;2023-04-03T01:31:55;96650.63;;;5.83;100.00
41334;BME280;27078;46.428;6.256;2023-04-03T01:34:21;96655.22;;;5.80;100.00
41334;BME280;27078;46.428;6.256;2023-04-03T01:36:47;96650.94;;;5.79;100.00
41334;BME280;27078;46.428;6.256;2023-04-03T01:39:12;96647.47;;;5.78;100.00
41334;BME280;27078;46.428;6.256;2023-04-03T01:41:38;96653.97;;;5.72;100.00
41334;BME280;27078;46.428;6.256;2023-04-03T01:44:03;96651.66;;;5.68;100.00
41334;BME280;27078;46.428;6.256;2023-04-03T01:46:29;96644.94;;;5.64;100.00
41334;BME280;27078;46.428;6.256;2023-04-03T01:48:54;96650.34;;;5.61;100.00
41334;BME280;27078;46.428;6.256;2023-04-03T01:51:20;96648.91;;;5.57;100.00
41334;BME280;27078;46.428;6.256;2023-04-03T01:53:45;96648.78;;;5.58;100.00
41334;BME280;27078;46.428;6.256;2023-04-03T01:56:10;96643.94;;;5.52;100.00
41334;BME280;27078;46.428;6.256;2023-04-03T01:58:36;96644.88;;;5.51;100.00
41334;BME280;27078;46.428;6.256;2023-04-03T02:01:02;96650.28;;;5.75;100.00
41334;BME280;27078;46.428;6.256;2023-04-03T02:03:27;96640.72;;;5.61;100.00
41334;BME280;27078;46.428;6.256;2023-04-03T02:05:53;96646.59;;;5.65;100.00
41334;BME280;27078;46.428;6.256;2023-04-03T02:08:18;96645.56;;;5.67;100.00
41334;BME280;27078;46.428;6.256;2023-04-03T02:10:47;96641.91;;;5.70;100.00
41334;BME280;27078;46.428;6.256;2023-04-03T02:13:12;96652.69;;;5.65;100.00
41334;BME280;27078;46.428;6.256;2023-04-03T02:15:38;96630.69;;;5.68;100.00
41334;BME280;27078;46.428;6.256;2023-04-03T02:18:04;96644.19;;;5.62;100.00
41334;BME280;27078;46.428;6.256;2023-04-03T02:20:30;96634.63;;;5.61;100.00
41334;BME280;27078;46.428;6.256;2023-04-03T02:22:55;96638.94;;;5.62;100.00
41334;BME280;27078;46.428;6.256;2023-04-03T02:25:20;96647.88;;;5.72;100.00
41334;BME280;27078;46.428;6.256;2023-04-03T02:27:46;96649.56;;;5.73;100.00
41334;BME280;27078;46.428;6.256;2023-04-03T02:30:12;96648.81;;;5.71;100.00
41334;BME280;27078;46.428;6.256;2023-04-03T02:32:39;96643.16;;;5.77;100.00
41334;BME280;27078;46.428;6.256;2023-04-03T02:35:06;96652.72;;;5.78;100.00
41334;BME280;27078;46.428;6.256;2023-04-03T02:37:31;96652.19;;;5.86;100.00
41334;BME280;27078;46.428;6.256;2023-04-03T02:39:57;96651.63;;;5.95;100.00
41334;BME280;27078;46.428;6.256;2023-04-03T02:42:22;96646.00;;;6.14;100.00
41334;BME280;27078;46.428;6.256;2023-04-03T02:44:47;96638.84;;;6.29;100.00
41334;BME280;27078;46.428;6.256;2023-04-03T02:47:13;96637.91;;;6.43;100.00
41334;BME280;27078;46.428;6.256;2023-04-03T02:49:38;96642.28;;;6.68;100.00
41334;BME280;27078;46.428;6.256;2023-04-03T02:52:03;96628.41;;;6.79;100.00
41334;BME280;27078;46.428;6.256;2023-04-03T02:54:29;96633.06;;;6.99;100.00
41334;BME280;27078;46.428;6.256;2023-04-03T02:56:56;96641.59;;;7.03;100.00
41334;BME280;27078;46.428;6.256;2023-04-03T02:59:22;96636.78;;;7.21;100.00
41334;BME280;27078;46.428;6.256;2023-04-03T03:01:47;96632.69;;;7.17;100.00
41334;BME280;27078;46.428;6.256;2023-04-03T03:04:13;96642.31;;;7.29;100.00
41334;BME280;27078;46.428;6.256;2023-04-03T03:06:38;96638.16;;;7.26;100.00
41334;BME280;27078;46.428;6.256;2023-04-03T03:09:04;96644.00;;;7.30;100.00
41334;BME280;27078;46.428;6.256;2023-04-03T03:11:30;96636.06;;;7.19;100.00
41334;BME280;27078;46.428;6.256;2023-04-03T03:13:56;96638.41;;;7.10;100.00
41334;BME280;27078;46.428;6.256;2023-04-03T03:16:21;96645.78;;;7.05;100.00
41334;BME280;27078;46.428;6.256;2023-04-03T03:18:47;96627.38;;;7.05;100.00
41334;BME280;27078;46.428;6.256;2023-04-03T03:21:12;96630.19;;;7.15;100.00
41334;BME280;27078;46.428;6.256;2023-04-03T03:23:38;96634.44;;;7.05;100.00
41334;BME280;27078;46.428;6.256;2023-04-03T03:26:06;96626.66;;;7.03;100.00
41334;BME280;27078;46.428;6.256;2023-04-03T03:28:32;96633.03;;;7.12;100.00
41334;BME280;27078;46.428;6.256;2023-04-03T03:30:58;96630.69;;;7.20;100.00
41334;BME280;27078;46.428;6.256;2023-04-03T03:33:25;96628.19;;;7.19;100.00
41334;BME280;27078;46.428;6.256;2023-04-03T03:35:52;96615.16;;;7.17;100.00
41334;BME280;27078;46.428;6.256;2023-04-03T03:38:18;96623.84;;;7.30;100.00
41334;BME280;27078;46.428;6.256;2023-04-03T03:40:43;96618.38;;;7.45;100.00
41334;BME280;27078;46.428;6.256;2023-04-03T03:43:08;96618.00;;;7.38;100.00
41334;BME280;27078;46.428;6.256;2023-04-03T03:45:34;96622.97;;;7.30;100.00
41334;BME280;27078;46.428;6.256;2023-04-03T03:48:00;96619.47;;;7.18;100.00
41334;BME280;27078;46.428;6.256;2023-04-03T03:50:26;96623.47;;;7.11;100.00
41334;BME280;27078;46.428;6.256;2023-04-03T03:52:51;96613.81;;;7.11;100.00
41334;BME280;27078;46.428;6.256;2023-04-03T03:55:17;96616.44;;;7.11;100.00
41334;BME280;27078;46.428;6.256;2023-04-03T03:57:42;96630.63;;;7.09;100.00
41334;BME280;27078;46.428;6.256;2023-04-03T04:00:08;96617.84;;;6.91;100.00
41334;BME280;27078;46.428;6.256;2023-04-03T04:02:34;96627.97;;;6.85;100.00
41334;BME280;27078;46.428;6.256;2023-04-03T04:04:59;96607.81;;;6.72;100.00
41334;BME280;27078;46.428;6.256;2023-04-03T04:07:24;96616.44;;;6.75;100.00
41334;BME280;27078;46.428;6.256;2023-04-03T04:09:53;96619.88;;;6.75;100.00
41334;BME280;27078;46.428;6.256;2023-04-03T04:12:18;96622.34;;;6.65;100.00
41334;BME280;27078;46.428;6.256;2023-04-03T04:14:44;96609.31;;;6.64;100.00
41334;BME280;27078;46.428;6.256;2023-04-03T04:17:14;96615.28;;;6.66;100.00
41334;BME280;27078;46.428;6.256;2023-04-03T04:19:40;96609.00;;;6.68;100.00
41334;BME280;27078;46.428;6.256;2023-04-03T04:22:05;96609.53;;;6.73;100.00
41334;BME280;27078;46.428;6.256;2023-04-03T04:24:30;96606.53;;;6.91;100.00
41334;BME280;27078;46.428;6.256;2023-04-03T04:26:56;96602.28;;;7.01;100.00
41334;BME280;27078;46.428;6.256;2023-04-03T04:29:21;96612.06;;;6.99;100.00
41334;BME280;27078;46.428;6.256;2023-04-03T04:31:46;96610.38;;;6.98;100.00
41334;BME280;27078;46.428;6.256;2023-04-03T04:34:12;96622.09;;;6.81;100.00
41334;BME280;27078;46.428;6.256;2023-04-03T04:36:38;96607.22;;;6.69;100.00
41334;BME280;27078;46.428;6.256;2023-04-03T04:39:04;96624.63;;;6.70;100.00
41334;BME280;27078;46.428;6.256;2023-04-03T04:41:30;96610.44;;;6.72;100.00
41334;BME280;27078;46.428;6.256;2023-04-03T04:43:55;96622.75;;;6.59;100.00
41334;BME280;27078;46.428;6.256;2023-04-03T04:46:21;96618.13;;;6.76;100.00
41334;BME280;27078;46.428;6.256;2023-04-03T04:48:47;96617.09;;;6.65;100.00
41334;BME280;27078;46.428;6.256;2023-04-03T04:51:13;96623.81;;;6.69;100.00
41334;BME280;27078;46.428;6.256;2023-04-03T04:53:38;96632.41;;;6.71;100.00
41334;BME280;27078;46.428;6.256;2023-04-03T04:56:04;96631.38;;;6.61;100.00
41334;BME280;27078;46.428;6.256;2023-04-03T04:58:30;96640.72;;;6.65;100.00
41334;BME280;27078;46.428;6.256;2023-04-03T05:01:03;96641.44;;;6.67;100.00
41334;BME280;27078;46.428;6.256;2023-04-03T05:03:29;96642.66;;;6.87;100.00
41334;BME280;27078;46.428;6.256;2023-04-03T05:05:54;96646.44;;;6.83;100.00
41334;BME280;27078;46.428;6.256;2023-04-03T05:08:20;96646.03;;;6.77;100.00
41334;BME280;27078;46.428;6.256;2023-04-03T05:10:46;96649.81;;;6.72;100.00
41334;BME280;27078;46.428;6.256;2023-04-03T05:13:12;96648.78;;;6.62;100.00
41334;BME280;27078;46.428;6.256;2023-04-03T05:15:38;96646.16;;;6.62;100.00
41334;BME280;27078;46.428;6.256;2023-04-03T05:18:03;96641.03;;;6.61;100.00
41334;BME280;27078;46.428;6.256;2023-04-03T05:20:30;96657.63;;;6.61;100.00
41334;BME280;27078;46.428;6.256;2023-04-03T05:22:55;96647.63;;;6.66;100.00
41334;BME280;27078;46.428;6.256;2023-04-03T05:25:20;96658.44;;;6.62;100.00
41334;BME280;27078;46.428;6.256;2023-04-03T05:27:46;96640.72;;;6.65;100.00
41334;BME280;27078;46.428;6.256;2023-04-03T05:30:11;96654.16;;;6.73;100.00
41334;BME280;27078;46.428;6.256;2023-04-03T05:32:37;96649.53;;;6.51;100.00
41334;BME280;27078;46.428;6.256;2023-04-03T05:35:02;96647.25;;;6.34;100.00
41334;BME280;27078;46.428;6.256;2023-04-03T05:37:28;96653.63;;;6.17;100.00
41334;BME280;27078;46.428;6.256;2023-04-03T05:39:53;96652.81;;;6.17;100.00
41334;BME280;27078;46.428;6.256;2023-04-03T05:42:19;96648.19;;;6.20;100.00
41334;BME280;27078;46.428;6.256;2023-04-03T05:44:44;96642.50;;;6.26;100.00
41334;BME280;27078;46.428;6.256;2023-04-03T05:47:12;96640.19;;;6.35;100.00
41334;BME280;27078;46.428;6.256;2023-04-03T05:49:37;96647.88;;;6.38;100.00
41334;BME280;27078;46.428;6.256;2023-04-03T05:52:06;96643.69;;;6.48;100.00
41334;BME280;27078;46.428;6.256;2023-04-03T05:54:36;96636.00;;;6.45;100.00
41334;BME280;27078;46.428;6.256;2023-04-03T05:57:02;96625.38;;;6.72;100.00
41334;BME280;27078;46.428;6.256;2023-04-03T05:59:27;96633.44;;;6.82;100.00
41334;BME280;27078;46.428;6.256;2023-04-03T06:01:52;96633.63;;;6.91;100.00
41334;BME280;27078;46.428;6.256;2023-04-03T06:04:18;96639.75;;;6.66;100.00
41334;BME280;27078;46.428;6.256;2023-04-03T06:06:48;96642.19;;;6.57;100.00
41334;BME280;27078;46.428;6.256;2023-04-03T06:09:15;96641.66;;;6.51;100.00
41334;BME280;27078;46.428;6.256;2023-04-03T06:11:41;96639.91;;;6.52;100.00
41334;BME280;27078;46.428;6.256;2023-04-03T06:14:07;96631.13;;;6.77;100.00
41334;BME280;27078;46.428;6.256;2023-04-03T06:16:33;96626.44;;;6.69;100.00
41334;BME280;27078;46.428;6.256;2023-04-03T06:18:59;96635.94;;;6.83;100.00
41334;BME280;27078;46.428;6.256;2023-04-03T06:21:24;96634.63;;;7.02;100.00
41334;BME280;27078;46.428;6.256;2023-04-03T06:23:50;96631.97;;;7.14;100.00
41334;BME280;27078;46.428;6.256;2023-04-03T06:26:16;96651.38;;;7.25;100.00
41334;BME280;27078;46.428;6.256;2023-04-03T06:28:42;96651.38;;;7.25;100.00
41334;BME280;27078;46.428;6.256;2023-04-03T06:31:07;96652.53;;;7.21;100.00
41334;BME280;27078;46.428;6.256;2023-04-03T06:33:34;96667.53;;;7.31;100.00
41334;BME280;27078;46.428;6.256;2023-04-03T06:36:02;96671.06;;;7.43;100.00
41334;BME280;27078;46.428;6.256;2023-04-03T06:38:28;96656.88;;;7.22;100.00
41334;BME280;27078;46.428;6.256;2023-04-03T06:40:54;96670.97;;;7.08;100.00
41334;BME280;27078;46.428;6.256;2023-04-03T06:43:19;96659.00;;;7.04;100.00
41334;BME280;27078;46.428;6.256;2023-04-03T06:45:45;96658.31;;;6.89;100.00
41334;BME280;27078;46.428;6.256;2023-04-03T06:48:12;96661.44;;;6.94;100.00
41334;BME280;27078;46.428;6.256;2023-04-03T06:50:37;96656.69;;;7.36;100.00
41334;BME280;27078;46.428;6.256;2023-04-03T06:53:03;96664.34;;;7.63;100.00
41334;BME280;27078;46.428;6.256;2023-04-03T06:55:28;96653.72;;;7.65;100.00
41334;BME280;27078;46.428;6.256;2023-04-03T06:57:54;96651.03;;;7.78;100.00
41334;BME280;27078;46.428;6.256;2023-04-03T07:00:20;96639.69;;;7.53;100.00
41334;BME280;27078;46.428;6.256;2023-04-03T07:02:46;96658.22;;;7.51;100.00
41334;BME280;27078;46.428;6.256;2023-04-03T07:05:12;96655.41;;;7.66;100.00
41334;BME280;27078;46.428;6.256;2023-04-03T07:07:38;96645.88;;;7.76;100.00
41334;BME280;27078;46.428;6.256;2023-04-03T07:10:05;96650.47;;;7.85;100.00
41334;BME280;27078;46.428;6.256;2023-04-03T07:12:31;96639.41;;;7.69;100.00
41334;BME280;27078;46.428;6.256;2023-04-03T07:14:56;96655.97;;;7.58;100.00
41334;BME280;27078;46.428;6.256;2023-04-03T07:17:22;96651.09;;;7.41;100.00
41334;BME280;27078;46.428;6.256;2023-04-03T07:19:48;96665.53;;;7.35;100.00
41334;BME280;27078;46.428;6.256;2023-04-03T07:22:13;96662.13;;;7.46;100.00
41334;BME280;27078;46.428;6.256;2023-04-03T07:24:38;96655.28;;;7.67;100.00
41334;BME280;27078;46.428;6.256;2023-04-03T07:27:04;96662.28;;;7.80;100.00
41334;BME280;27078;46.428;6.256;2023-04-03T07:29:29;96672.03;;;8.02;100.00
41334;BME280;27078;46.428;6.256;2023-04-03T07:31:55;96657.94;;;8.03;100.00
41334;BME280;27078;46.428;6.256;2023-04-03T07:34:21;96664.75;;;8.16;100.00
41334;BME280;27078;46.428;6.256;2023-04-03T07:36:46;96666.31;;;8.08;100.00
41334;BME280;27078;46.428;6.256;2023-04-03T07:39:11;96653.19;;;8.19;100.00
41334;BME280;27078;46.428;6.256;2023-04-03T07:41:37;96657.03;;;8.38;100.00
41334;BME280;27078;46.428;6.256;2023-04-03T07:44:03;96660.63;;;8.36;100.00
41334;BME280;27078;46.428;6.256;2023-04-03T07:46:31;96657.50;;;8.31;100.00
41334;BME280;27078;46.428;6.256;2023-04-03T07:48:56;96678.28;;;8.47;100.00
41334;BME280;27078;46.428;6.256;2023-04-03T07:51:22;96678.63;;;8.43;100.00
41334;BME280;27078;46.428;6.256;2023-04-03T07:53:47;96671.16;;;8.36;100.00
41334;BME280;27078;46.428;6.256;2023-04-03T07:56:13;96667.66;;;8.25;100.00
41334;BME280;27078;46.428;6.256;2023-04-03T07:58:39;96656.56;;;8.32;100.00
41334;BME280;27078;46.428;6.256;2023-04-03T08:01:05;96676.63;;;8.22;100.00
41334;BME280;27078;46.428;6.256;2023-04-03T08:03:31;96669.72;;;8.32;100.00
41334;BME280;27078;46.428;6.256;2023-04-03T08:06:02;96674.25;;;8.19;100.00
41334;BME280;27078;46.428;6.256;2023-04-03T08:08:28;96651.25;;;8.21;100.00
41334;BME280;27078;46.428;6.256;2023-04-03T08:10:59;96663.56;;;8.09;100.00
41334;BME280;27078;46.428;6.256;2023-04-03T08:13:25;96672.31;;;8.21;100.00
41334;BME280;27078;46.428;6.256;2023-04-03T08:15:50;96670.59;;;8.44;100.00
41334;BME280;27078;46.428;6.256;2023-04-03T08:18:16;96682.81;;;8.56;100.00
41334;BME280;27078;46.428;6.256;2023-04-03T08:20:43;96677.94;;;8.74;100.00
41334;BME280;27078;46.428;6.256;2023-04-03T08:23:09;96669.78;;;8.77;100.00
41334;BME280;27078;46.428;6.256;2023-04-03T08:25:39;96669.31;;;9.06;100.00
41334;BME280;27078;46.428;6.256;2023-04-03T08:28:05;96680.69;;;9.07;100.00
41334;BME280;27078;46.428;6.256;2023-04-03T08:30:30;96680.44;;;8.76;100.00
41334;BME280;27078;46.428;6.256;2023-04-03T08:32:56;96684.41;;;8.70;100.00
41334;BME280;27078;46.428;6.256;2023-04-03T08:35:21;96679.38;;;8.90;100.00
41334;BME280;27078;46.428;6.256;2023-04-03T08:37:46;96693.72;;;8.97;100.00
41334;BME280;27078;46.428;6.256;2023-04-03T08:40:14;96688.06;;;9.24;100.00
41334;BME280;27078;46.428;6.256;2023-04-03T08:48:08;96687.50;;;8.98;100.00
41334;BME280;27078;46.428;6.256;2023-04-03T08:50:40;96683.66;;;9.13;100.00
41334;BME280;27078;46.428;6.256;2023-04-03T08:53:14;96675.53;;;9.16;100.00
41334;BME280;27078;46.428;6.256;2023-04-03T08:55:45;96672.38;;;9.34;100.00
41334;BME280;27078;46.428;6.256;2023-04-03T09:03:16;96688.38;;;9.53;100.00
41334;BME280;27078;46.428;6.256;2023-04-03T09:08:31;96684.22;;;9.83;100.00
41334;BME280;27078;46.428;6.256;2023-04-03T09:11:23;96682.00;;;9.67;100.00
41334;BME280;27078;46.428;6.256;2023-04-03T09:16:28;96653.16;;;10.08;100.00
41334;BME280;27078;46.428;6.256;2023-04-03T09:19:11;96675.03;;;9.98;100.00
41334;BME280;27078;46.428;6.256;2023-04-03T09:21:40;96670.41;;;10.12;100.00
41334;BME280;27078;46.428;6.256;2023-04-03T09:24:10;96671.69;;;10.17;100.00
41334;BME280;27078;46.428;6.256;2023-04-03T09:26:48;96668.63;;;10.12;100.00
41334;BME280;27078;46.428;6.256;2023-04-03T09:29:21;96669.88;;;10.18;100.00
41334;BME280;27078;46.428;6.256;2023-04-03T09:31:50;96660.81;;;10.11;100.00
41334;BME280;27078;46.428;6.256;2023-04-03T09:34:35;96659.91;;;10.22;100.00
41334;BME280;27078;46.428;6.256;2023-04-03T09:37:03;96664.81;;;10.26;100.00
41334;BME280;27078;46.428;6.256;2023-04-03T09:39:32;96672.44;;;10.41;100.00
41334;BME280;27078;46.428;6.256;2023-04-03T09:42:14;96668.16;;;10.49;100.00
41334;BME280;27078;46.428;6.256;2023-04-03T09:44:53;96652.81;;;10.64;100.00
41334;BME280;27078;46.428;6.256;2023-04-03T09:47:42;96664.56;;;10.81;100.00
41334;BME280;27078;46.428;6.256;2023-04-03T09:52:38;96678.66;;;10.82;100.00
41334;BME280;27078;46.428;6.256;2023-04-03T09:55:13;96669.16;;;10.48;100.00
41334;BME280;27078;46.428;6.256;2023-04-03T09:57:40;96663.28;;;10.45;100.00
41334;BME280;27078;46.428;6.256;2023-04-03T10:00:10;96674.47;;;10.58;100.00
41334;BME280;27078;46.428;6.256;2023-04-03T10:02:44;96667.91;;;10.73;100.00
41334;BME280;27078;46.428;6.256;2023-04-03T10:05:30;96667.97;;;10.93;100.00
41334;BME280;27078;46.428;6.256;2023-04-03T10:10:42;96665.16;;;10.85;100.00
41334;BME280;27078;46.428;6.256;2023-04-03T10:13:12;96656.03;;;10.68;100.00
41334;BME280;27078;46.428;6.256;2023-04-03T10:15:51;96655.25;;;10.46;100.00
41334;BME280;27078;46.428;6.256;2023-04-03T10:21:15;96666.97;;;10.32;100.00
41334;BME280;27078;46.428;6.256;2023-04-03T10:24:19;96649.22;;;10.23;100.00
41334;BME280;27078;46.428;6.256;2023-04-03T10:29:53;96655.31;;;9.82;100.00
41334;BME280;27078;46.428;6.256;2023-04-03T10:41:21;96661.97;;;10.18;100.00
41334;BME280;27078;46.428;6.256;2023-04-03T10:46:42;96663.75;;;9.96;100.00
41334;BME280;27078;46.428;6.256;2023-04-03T10:52:23;96643.84;;;10.04;100.00
41334;BME280;27078;46.428;6.256;2023-04-03T10:54:58;96632.88;;;9.87;100.00
41334;BME280;27078;46.428;6.256;2023-04-03T10:57:25;96644.03;;;10.12;100.00
41334;BME280;27078;46.428;6.256;2023-04-03T10:59:53;96648.78;;;10.39;100.00
41334;BME280;27078;46.428;6.256;2023-04-03T11:02:28;96627.81;;;10.68;100.00
41334;BME280;27078;46.428;6.256;2023-04-03T11:05:20;96638.59;;;10.55;100.00
41334;BME280;27078;46.428;6.256;2023-04-03T11:07:51;96644.63;;;10.36;100.00
41334;BME280;27078;46.428;6.256;2023-04-03T11:15:32;96656.59;;;10.41;100.00
41334;BME280;27078;46.428;6.256;2023-04-03T11:18:02;96651.09;;;10.11;100.00
41334;BME280;27078;46.428;6.256;2023-04-03T11:20:32;96629.75;;;10.35;100.00
41334;BME280;27078;46.428;6.256;2023-04-03T11:25:46;96641.75;;;10.28;100.00
41334;BME280;27078;46.428;6.256;2023-04-03T11:28:14;96645.78;;;10.44;100.00
41334;BME280;27078;46.428;6.256;2023-04-03T11:33:41;96634.31;;;10.33;100.00
41334;BME280;27078;46.428;6.256;2023-04-03T11:36:18;96603.78;;;10.41;100.00
41334;BME280;27078;46.428;6.256;2023-04-03T11:38:46;96631.41;;;10.15;100.00
41334;BME280;27078;46.428;6.256;2023-04-03T11:41:13;96624.88;;;10.19;100.00
41334;BME280;27078;46.428;6.256;2023-04-03T11:43:56;96624.13;;;10.08;100.00
41334;BME280;27078;46.428;6.256;2023-04-03T11:46:22;96625.91;;;10.28;100.00
41334;BME280;27078;46.428;6.256;2023-04-03T11:48:49;96620.91;;;10.25;100.00
41334;BME280;27078;46.428;6.256;2023-04-03T11:51:39;96627.66;;;10.18;100.00
41334;BME280;27078;46.428;6.256;2023-04-03T12:03:30;96603.88;;;10.60;100.00
41334;BME280;27078;46.428;6.256;2023-04-03T12:16:02;96592.44;;;10.50;100.00
41334;BME280;27078;46.428;6.256;2023-04-03T12:21:17;96593.94;;;10.73;100.00
41334;BME280;27078;46.428;6.256;2023-04-03T12:24:24;96586.94;;;10.63;100.00
41334;BME280;27078;46.428;6.256;2023-04-03T12:29:37;96597.88;;;10.89;100.00
41334;BME280;27078;46.428;6.256;2023-04-03T12:32:26;96592.75;;;11.07;100.00
41334;BME280;27078;46.428;6.256;2023-04-03T12:43:05;96582.22;;;10.66;100.00
41334;BME280;27078;46.428;6.256;2023-04-03T12:45:49;96586.63;;;10.96;100.00
41334;BME280;27078;46.428;6.256;2023-04-03T12:48:20;96590.00;;;11.08;100.00
41334;BME280;27078;46.428;6.256;2023-04-03T12:50:49;96587.66;;;11.34;100.00
41334;BME280;27078;46.428;6.256;2023-04-03T12:53:21;96584.31;;;11.23;100.00
41334;BME280;27078;46.428;6.256;2023-04-03T12:55:49;96561.25;;;10.74;100.00
41334;BME280;27078;46.428;6.256;2023-04-03T12:58:26;96571.94;;;10.63;100.00
41334;BME280;27078;46.428;6.256;2023-04-03T13:01:11;96573.38;;;10.87;100.00
41334;BME280;27078;46.428;6.256;2023-04-03T13:03:39;96564.53;;;11.07;100.00
41334;BME280;27078;46.428;6.256;2023-04-03T13:06:05;96561.22;;;11.25;100.00
41334;BME280;27078;46.428;6.256;2023-04-03T13:08:31;96555.09;;;11.24;100.00
41334;BME280;27078;46.428;6.256;2023-04-03T13:11:09;96560.53;;;11.23;100.00
41334;BME280;27078;46.428;6.256;2023-04-03T13:13:36;96562.34;;;11.32;100.00
41334;BME280;27078;46.428;6.256;2023-04-03T13:16:10;96552.59;;;11.23;100.00
41334;BME280;27078;46.428;6.256;2023-04-03T13:18:37;96558.56;;;11.25;100.00
41334;BME280;27078;46.428;6.256;2023-04-03T13:21:27;96532.00;;;11.26;100.00
41334;BME280;27078;46.428;6.256;2023-04-03T13:23:58;96557.75;;;11.34;100.00
41334;BME280;27078;46.428;6.256;2023-04-03T13:26:28;96516.13;;;11.46;100.00
41334;BME280;27078;46.428;6.256;2023-04-03T13:28:57;96552.88;;;11.39;100.00
41334;BME280;27078;46.428;6.256;2023-04-03T13:31:29;96541.47;;;11.29;100.00
41334;BME280;27078;46.428;6.256;2023-04-03T13:34:06;96557.47;;;11.37;100.00
41334;BME280;27078;46.428;6.256;2023-04-03T13:36:37;96559.53;;;11.14;100.00
41334;BME280;27078;46.428;6.256;2023-04-03T13:41:40;96540.63;;;11.48;100.00
41334;BME280;27078;46.428;6.256;2023-04-03T13:51:48;96550.66;;;11.54;100.00
41334;BME280;27078;46.428;6.256;2023-04-03T13:54:38;96547.56;;;11.19;97.71
41334;BME280;27078;46.428;6.256;2023-04-03T13:57:12;96566.66;;;11.13;100.00
41334;BME280;27078;46.428;6.256;2023-04-03T13:59:38;96563.03;;;11.34;97.94
41334;BME280;27078;46.428;6.256;2023-04-03T14:04:33;96562.47;;;10.70;96.35
41334;BME280;27078;46.428;6.256;2023-04-03T14:07:13;96547.47;;;10.71;93.83
41334;BME280;27078;46.428;6.256;2023-04-03T14:09:39;96543.28;;;10.68;91.44
41334;BME280;27078;46.428;6.256;2023-04-03T14:12:08;96544.69;;;10.72;100.00
41334;BME280;27078;46.428;6.256;2023-04-03T14:14:35;96550.72;;;10.84;98.17
41334;BME280;27078;46.428;6.256;2023-04-03T14:17:09;96543.09;;;10.91;96.29
41334;BME280;27078;46.428;6.256;2023-04-03T14:19:35;96552.31;;;10.66;89.66
41334;BME280;27078;46.428;6.256;2023-04-03T14:22:18;96549.16;;;10.72;99.73
41334;BME280;27078;46.428;6.256;2023-04-03T14:24:45;96557.91;;;10.63;91.99
41334;BME280;27078;46.428;6.256;2023-04-03T14:27:34;96541.56;;;10.48;89.19
41334;BME280;27078;46.428;6.256;2023-04-03T14:30:00;96560.59;;;10.42;91.10
41334;BME280;27078;46.428;6.256;2023-04-03T14:32:28;96548.66;;;10.26;91.62
41334;BME280;27078;46.428;6.256;2023-04-03T14:34:53;96541.53;;;10.17;91.67
41334;BME280;27078;46.428;6.256;2023-04-03T14:37:23;96558.06;;;10.19;94.54
41334;BME280;27078;46.428;6.256;2023-04-03T14:39:51;96548.44;;;10.29;90.67
41334;BME280;27078;46.428;6.256;2023-04-03T14:42:21;96541.13;;;10.43;92.45
41334;BME280;27078;46.428;6.256;2023-04-03T14:44:47;96542.50;;;10.77;94.42
41334;BME280;27078;46.428;6.256;2023-04-03T14:47:19;96520.59;;;10.46;82.41